createdAt,value
2023-03-18T00:00:25.514Z,23.40
2023-03-18T00:02:57.650Z,20.20
2023-03-18T00:05:27.801Z,21.40
2023-03-18T00:07:57.615Z,19.00
2023-03-18T00:10:26.857Z,19.30
2023-03-18T00:12:55.977Z,19.70
2023-03-18T00:15:25.338Z,20.30
2023-03-18T00:17:54.948Z,19.10
2023-03-18T00:20:38.938Z,19.70
2023-03-18T00:23:10.717Z,21.90
2023-03-18T00:25:39.765Z,21.60
2023-03-18T00:28:08.674Z,21.60
2023-03-18T00:30:39.050Z,16.20
2023-03-18T00:33:10.319Z,21.10
2023-03-18T00:35:40.345Z,23.90
2023-03-18T00:38:20.976Z,20.10
2023-03-18T00:41:01.731Z,20.60
2023-03-18T00:43:34.157Z,20.40
2023-03-18T00:46:04.544Z,20.00
2023-03-18T00:48:34.693Z,21.20
2023-03-18T00:51:04.349Z,22.00
2023-03-18T00:53:34.112Z,20.90
2023-03-18T00:56:03.100Z,21.40
2023-03-18T00:58:32.156Z,21.80
2023-03-18T01:01:01.879Z,19.30
2023-03-18T01:03:32.498Z,20.00
2023-03-18T01:06:02.974Z,21.00
2023-03-18T01:08:32.514Z,21.90
2023-03-18T01:11:01.981Z,20.70
2023-03-18T01:13:31.188Z,22.60
2023-03-18T01:16:01.047Z,20.10
2023-03-18T01:18:30.551Z,22.60
2023-03-18T01:20:59.636Z,22.60
2023-03-18T01:23:31.458Z,21.00
2023-03-18T01:26:00.319Z,19.20
2023-03-18T01:28:29.828Z,21.60
2023-03-18T01:30:58.977Z,22.30
2023-03-18T01:33:29.294Z,21.20
2023-03-18T01:36:00.363Z,17.30
2023-03-18T01:38:31.588Z,19.40
2023-03-18T01:41:08.954Z,20.70
2023-03-18T01:43:41.085Z,15.30
2023-03-18T01:46:37.969Z,21.60
2023-03-18T01:49:14.324Z,18.20
2023-03-18T01:52:05.872Z,17.30
2023-03-18T01:54:38.587Z,19.10
2023-03-18T01:57:08.117Z,13.70
2023-03-18T01:59:39.013Z,15.00
2023-03-18T02:02:10.784Z,15.20
2023-03-18T02:04:45.298Z,16.60
2023-03-18T02:07:21.115Z,14.50
2023-03-18T02:09:51.157Z,14.10
2023-03-18T02:12:26.337Z,15.00
2023-03-18T02:14:58.119Z,13.00
2023-03-18T02:17:32.535Z,15.10
2023-03-18T02:20:10.916Z,14.40
2023-03-18T02:22:43.856Z,12.60
2023-03-18T02:25:26.665Z,14.20
2023-03-18T02:27:59.581Z,13.60
2023-03-18T02:30:38.483Z,15.20
2023-03-18T02:33:09.653Z,13.60
2023-03-18T02:35:40.140Z,10.70
2023-03-18T02:38:10.020Z,13.10
2023-03-18T02:40:40.203Z,13.70
2023-03-18T02:43:28.153Z,12.20
2023-03-18T02:46:44.396Z,12.00
2023-03-18T02:49:13.735Z,12.70
2023-03-18T02:51:43.037Z,14.40
2023-03-18T02:54:14.764Z,12.50
2023-03-18T02:56:44.152Z,12.80
2023-03-18T02:59:14.705Z,14.70
2023-03-18T03:01:44.593Z,16.60
2023-03-18T03:04:14.279Z,16.50
2023-03-18T03:06:43.633Z,16.60
2023-03-18T03:09:14.565Z,12.80
2023-03-18T03:11:45.075Z,17.00
2023-03-18T03:14:17.014Z,10.30
2023-03-18T03:16:47.759Z,13.10
2023-03-18T03:19:24.162Z,16.70
2023-03-18T03:21:54.043Z,17.20
2023-03-18T03:24:22.866Z,13.50
2023-03-18T03:26:53.468Z,13.60
2023-03-18T03:29:22.182Z,13.80
2023-03-18T03:31:51.891Z,17.90
2023-03-18T03:34:21.705Z,15.30
2023-03-18T03:36:50.486Z,12.80
2023-03-18T03:39:20.598Z,14.30
2023-03-18T03:41:49.610Z,10.00
2023-03-18T03:44:18.485Z,14.90
2023-03-18T03:46:51.555Z,13.60
2023-03-18T03:49:20.573Z,11.80
2023-03-18T03:51:49.490Z,15.50
2023-03-18T03:54:20.188Z,10.80
2023-03-18T03:56:50.946Z,14.00
2023-03-18T03:59:21.015Z,11.60
2023-03-18T04:02:12.167Z,11.50
2023-03-18T04:04:45.617Z,15.10
2023-03-18T04:07:23.034Z,13.90
2023-03-18T04:09:52.087Z,13.10
2023-03-18T04:12:21.550Z,12.50
2023-03-18T04:14:57.088Z,17.30
2023-03-18T04:17:25.941Z,9.90
2023-03-18T04:19:54.971Z,12.80
2023-03-18T04:22:24.613Z,8.70
2023-03-18T04:24:53.751Z,12.90
2023-03-18T04:27:23.347Z,10.70
2023-03-18T04:29:56.738Z,8.70
2023-03-18T04:32:30.960Z,12.30
2023-03-18T04:35:00.341Z,13.90
2023-03-18T04:37:29.662Z,12.90
2023-03-18T04:39:59.708Z,9.50
2023-03-18T04:42:28.801Z,11.00
2023-03-18T04:44:58.312Z,11.80
2023-03-18T04:47:28.732Z,11.40
2023-03-18T04:49:58.670Z,9.40
2023-03-18T04:52:27.865Z,12.50
2023-03-18T04:54:57.143Z,14.50
2023-03-18T04:57:26.788Z,10.90
2023-03-18T05:00:02.414Z,8.10
2023-03-18T05:02:32.713Z,12.20
2023-03-18T05:05:01.666Z,8.80
2023-03-18T05:07:32.387Z,9.00
2023-03-18T05:10:07.413Z,11.40
2023-03-18T05:12:43.855Z,11.40
2023-03-18T05:15:14.808Z,8.80
2023-03-18T05:17:48.892Z,8.70
2023-03-18T05:20:19.073Z,9.50
2023-03-18T05:22:50.241Z,10.10
2023-03-18T05:25:28.873Z,12.20
2023-03-18T05:27:59.144Z,10.00
2023-03-18T05:30:34.838Z,10.80
2023-03-18T05:33:05.386Z,9.90
2023-03-18T05:35:45.781Z,12.20
2023-03-18T05:38:15.171Z,8.10
2023-03-18T05:40:45.097Z,10.40
2023-03-18T05:43:22.375Z,6.60
2023-03-18T05:45:55.584Z,11.40
2023-03-18T05:48:32.393Z,9.40
2023-03-18T05:51:06.367Z,9.60
2023-03-18T05:56:31.850Z,6.30
2023-03-18T05:59:04.104Z,9.70
2023-03-18T06:01:46.333Z,7.00
2023-03-18T06:04:17.748Z,8.10
2023-03-18T06:06:47.385Z,8.00
2023-03-18T06:09:21.124Z,8.80
2023-03-18T06:11:52.054Z,9.60
2023-03-18T06:14:21.622Z,11.60
2023-03-18T06:19:23.067Z,7.80
2023-03-18T06:21:53.155Z,9.00
2023-03-18T06:24:22.296Z,7.00
2023-03-18T06:26:52.282Z,8.70
2023-03-18T06:29:25.657Z,8.60
2023-03-18T06:31:56.047Z,6.80
2023-03-18T06:34:33.035Z,6.10
2023-03-18T06:37:03.872Z,9.10
2023-03-18T06:39:33.513Z,6.90
2023-03-18T06:42:05.467Z,8.20
2023-03-18T06:44:43.276Z,8.30
2023-03-18T06:47:21.559Z,7.80
2023-03-18T06:49:57.073Z,7.30
2023-03-18T06:52:33.190Z,9.60
2023-03-18T06:55:07.596Z,6.30
2023-03-18T06:57:40.901Z,7.90
2023-03-18T07:00:14.302Z,8.10
2023-03-18T07:02:44.379Z,6.60
2023-03-18T07:05:15.413Z,8.50
2023-03-18T07:07:44.818Z,7.60
2023-03-18T07:10:27.891Z,6.60
2023-03-18T07:13:02.769Z,10.30
2023-03-18T07:15:33.693Z,6.20
2023-03-18T07:18:05.506Z,7.10
2023-03-18T07:20:37.164Z,6.10
2023-03-18T07:23:07.631Z,8.10
2023-03-18T07:25:37.007Z,8.30
2023-03-18T07:28:06.862Z,7.10
2023-03-18T07:30:36.277Z,6.80
2023-03-18T07:33:07.482Z,7.70
2023-03-18T07:35:41.370Z,6.30
2023-03-18T07:38:10.797Z,7.30
2023-03-18T07:40:39.859Z,6.60
2023-03-18T07:43:09.762Z,8.10
2023-03-18T07:45:41.638Z,5.70
2023-03-18T07:48:11.117Z,5.50
2023-03-18T07:50:41.422Z,5.50
2023-03-18T07:53:11.085Z,6.00
2023-03-18T07:55:41.317Z,7.50
2023-03-18T07:58:10.558Z,5.20
2023-03-18T08:00:40.247Z,9.80
2023-03-18T08:03:10.360Z,9.10
2023-03-18T08:05:40.288Z,7.60
2023-03-18T08:08:10.317Z,6.30
2023-03-18T08:10:43.791Z,6.60
2023-03-18T08:13:13.859Z,7.80
2023-03-18T08:15:43.116Z,6.80
2023-03-18T08:18:14.384Z,5.20
2023-03-18T08:20:45.226Z,5.70
2023-03-18T08:23:15.190Z,5.80
2023-03-18T08:25:44.359Z,8.30
2023-03-18T08:28:14.331Z,5.70
2023-03-18T08:30:48.135Z,6.80
2023-03-18T08:33:17.403Z,6.00
2023-03-18T08:35:46.891Z,6.30
2023-03-18T08:38:16.523Z,6.60
2023-03-18T08:40:47.028Z,5.00
2023-03-18T08:43:16.092Z,6.00
2023-03-18T08:45:46.427Z,6.80
2023-03-18T08:48:15.401Z,5.90
2023-03-18T08:50:50.070Z,5.20
2023-03-18T08:53:19.996Z,10.90
2023-03-18T08:55:48.946Z,5.20
2023-03-18T08:58:19.885Z,8.50
2023-03-18T09:00:50.926Z,7.00
2023-03-18T09:03:22.414Z,4.70
2023-03-18T09:05:53.906Z,7.90
2023-03-18T09:08:23.035Z,6.00
2023-03-18T09:10:54.862Z,5.60
2023-03-18T09:13:24.581Z,7.40
2023-03-18T09:15:57.621Z,7.70
2023-03-18T09:18:29.950Z,5.40
2023-03-18T09:20:58.913Z,6.30
2023-03-18T09:23:29.984Z,6.60
2023-03-18T09:26:00.334Z,5.60
2023-03-18T09:28:29.645Z,8.00
2023-03-18T09:30:58.931Z,7.60
2023-03-18T09:33:28.344Z,5.60
2023-03-18T09:35:57.566Z,5.70
2023-03-18T09:38:28.177Z,8.70
2023-03-18T09:41:13.591Z,5.80
2023-03-18T09:44:21.941Z,5.00
2023-03-18T09:47:23.407Z,6.40
2023-03-18T09:50:06.078Z,5.10
2023-03-18T09:52:46.336Z,5.20
2023-03-18T09:55:40.682Z,4.90
2023-03-18T09:58:26.292Z,4.60
2023-03-18T10:01:03.960Z,6.90
2023-03-18T10:04:14.205Z,5.10
2023-03-18T10:06:43.724Z,5.60
2023-03-18T10:09:47.582Z,7.20
2023-03-18T10:12:45.890Z,4.80
2023-03-18T10:15:27.379Z,4.90
2023-03-18T10:18:27.114Z,5.40
2023-03-18T10:21:29.788Z,7.60
2023-03-18T10:24:32.930Z,5.90
2023-03-18T10:27:25.813Z,5.30
2023-03-18T10:30:27.997Z,4.90
2023-03-18T10:33:18.431Z,5.20
2023-03-18T10:36:02.512Z,4.30
2023-03-18T10:38:38.722Z,6.60
2023-03-18T10:41:25.886Z,4.50
2023-03-18T10:43:56.996Z,5.20
2023-03-18T10:46:26.342Z,5.60
2023-03-18T10:49:01.222Z,4.50
2023-03-18T10:51:37.576Z,9.70
2023-03-18T10:54:14.027Z,4.80
2023-03-18T10:56:44.154Z,5.60
2023-03-18T10:59:18.539Z,4.00
2023-03-18T11:02:15.056Z,4.40
2023-03-18T11:04:55.838Z,4.10
2023-03-18T11:07:28.306Z,4.30
2023-03-18T11:10:12.671Z,4.70
2023-03-18T11:12:42.603Z,4.60
2023-03-18T11:15:13.337Z,5.50
2023-03-18T11:17:43.811Z,4.60
2023-03-18T11:20:21.429Z,4.00
2023-03-18T11:22:53.536Z,4.80
2023-03-18T11:25:26.264Z,5.30
2023-03-18T11:28:04.654Z,4.60
2023-03-18T11:30:46.594Z,5.50
2023-03-18T11:33:17.640Z,5.80
2023-03-18T11:35:58.255Z,4.40
2023-03-18T11:38:29.559Z,4.90
2023-03-18T11:41:09.050Z,4.50
2023-03-18T11:43:38.843Z,4.60
2023-03-18T11:46:09.514Z,6.10
2023-03-18T11:48:41.054Z,6.30
2023-03-18T11:51:40.084Z,6.40
2023-03-18T11:54:43.828Z,7.10
2023-03-18T11:57:20.856Z,5.60
2023-03-18T12:00:05.785Z,4.70
2023-03-18T12:03:19.545Z,6.10
2023-03-18T12:05:52.886Z,5.30
2023-03-18T12:09:07.483Z,4.70
2023-03-18T12:12:05.276Z,4.50
2023-03-18T12:17:24.655Z,4.40
2023-03-18T12:20:30.730Z,4.90
2023-03-18T12:23:27.877Z,4.50
2023-03-18T12:26:25.390Z,6.10
2023-03-18T12:29:19.506Z,8.80
2023-03-18T12:31:57.683Z,4.90
2023-03-18T12:34:47.174Z,4.90
2023-03-18T12:37:34.890Z,5.90
2023-03-18T12:40:13.282Z,8.30
2023-03-18T12:42:52.511Z,8.40
2023-03-18T12:45:24.275Z,8.50
2023-03-18T12:48:13.128Z,4.30
2023-03-18T12:50:43.488Z,5.30
2023-03-18T12:53:17.771Z,5.10
2023-03-18T12:55:50.997Z,4.50
2023-03-18T13:00:58.005Z,6.80
2023-03-18T13:03:38.945Z,4.80
2023-03-18T13:06:34.565Z,6.70
2023-03-18T13:09:27.217Z,9.20
2023-03-18T13:12:21.029Z,4.40
2023-03-18T13:15:08.858Z,6.20
2023-03-18T13:17:40.451Z,4.60
2023-03-18T13:20:34.303Z,4.80
2023-03-18T13:23:41.882Z,5.30
2023-03-18T13:26:15.745Z,6.80
2023-03-18T13:29:08.402Z,4.50
2023-03-18T13:31:47.925Z,5.70
2023-03-18T13:34:43.663Z,5.20
2023-03-18T13:37:37.032Z,4.60
2023-03-18T13:40:10.576Z,6.50
2023-03-18T13:42:39.674Z,5.50
2023-03-18T13:45:22.806Z,5.20
2023-03-18T13:47:59.911Z,7.40
2023-03-18T13:50:43.727Z,6.80
2023-03-18T13:53:26.780Z,6.00
2023-03-18T13:55:59.012Z,7.00
2023-03-18T13:58:30.833Z,5.10
2023-03-18T14:04:32.524Z,4.30
2023-03-18T14:07:16.319Z,6.40
2023-03-18T14:10:15.396Z,4.40
2023-03-18T14:12:48.765Z,4.80
2023-03-18T14:15:24.460Z,6.80
2023-03-18T14:17:59.064Z,5.40
2023-03-18T14:20:29.131Z,4.70
2023-03-18T14:23:37.976Z,26.70
2023-03-18T14:26:17.268Z,338.30
2023-03-18T14:29:11.436Z,270.30
2023-03-18T14:31:44.771Z,231.10
2023-03-18T14:34:20.143Z,277.60
2023-03-18T14:36:55.091Z,202.30
2023-03-18T14:39:34.739Z,72.10
2023-03-18T14:42:21.748Z,36.00
2023-03-18T14:44:54.394Z,10.40
2023-03-18T14:47:54.874Z,37.00
2023-03-18T14:50:47.485Z,113.10
2023-03-18T14:53:26.455Z,282.00
2023-03-18T14:55:57.401Z,144.50
2023-03-18T14:58:27.932Z,76.90
2023-03-18T15:01:05.679Z,47.60
2023-03-18T15:03:35.374Z,30.60
2023-03-18T15:06:05.321Z,98.20
2023-03-18T15:08:47.329Z,29.10
2023-03-18T15:11:19.247Z,19.20
2023-03-18T15:13:48.369Z,17.00
2023-03-18T15:16:20.689Z,13.10
2023-03-18T15:18:55.295Z,11.00
2023-03-18T15:21:35.472Z,10.20
2023-03-18T15:24:08.072Z,8.30
2023-03-18T15:26:39.630Z,8.20
2023-03-18T15:30:01.354Z,9.10
2023-03-18T15:32:32.699Z,9.40
2023-03-18T15:35:12.297Z,6.90
2023-03-18T15:37:43.500Z,5.30
2023-03-18T15:40:26.545Z,7.30
2023-03-18T15:42:58.850Z,16.00
2023-03-18T15:45:29.332Z,18.00
2023-03-18T15:48:00.125Z,21.20
2023-03-18T15:50:30.964Z,20.20
2023-03-18T15:53:30.794Z,15.10
2023-03-18T15:56:08.002Z,13.20
2023-03-18T15:58:38.220Z,15.90
2023-03-18T16:01:08.453Z,14.40
2023-03-18T16:03:43.793Z,8.80
2023-03-18T16:06:15.272Z,12.00
2023-03-18T16:08:46.491Z,15.60
2023-03-18T16:11:18.254Z,15.80
2023-03-18T16:13:47.909Z,19.80
2023-03-18T16:16:29.455Z,20.70
2023-03-18T16:19:00.150Z,14.90
2023-03-18T16:21:30.008Z,19.90
2023-03-18T16:23:59.336Z,16.80
2023-03-18T16:26:28.705Z,20.10
2023-03-18T16:28:57.639Z,22.50
2023-03-18T16:31:28.256Z,20.60
2023-03-18T16:33:57.364Z,24.40
2023-03-18T16:36:32.642Z,23.40
2023-03-18T16:39:02.120Z,25.70
2023-03-18T16:41:32.013Z,26.60
2023-03-18T16:44:02.143Z,21.60
2023-03-18T16:46:39.097Z,23.40
2023-03-18T16:49:16.734Z,25.00
2023-03-18T16:51:47.244Z,28.00
2023-03-18T16:54:22.090Z,25.40
2023-03-18T16:56:53.056Z,29.00
2023-03-18T16:59:25.444Z,32.30
2023-03-18T17:01:54.611Z,27.10
2023-03-18T17:04:34.800Z,34.00
2023-03-18T17:07:05.069Z,32.80
2023-03-18T17:09:34.837Z,33.90
2023-03-18T17:12:07.621Z,27.60
2023-03-18T17:14:39.256Z,24.90
2023-03-18T17:17:14.730Z,29.30
2023-03-18T17:19:46.296Z,26.40
2023-03-18T17:22:24.136Z,26.00
2023-03-18T17:24:54.059Z,23.90
2023-03-18T17:27:40.104Z,16.50
2023-03-18T17:30:20.875Z,13.40
2023-03-18T17:32:50.340Z,17.20
2023-03-18T17:35:21.661Z,16.60
2023-03-18T17:37:51.102Z,13.20
2023-03-18T17:40:22.881Z,9.40
2023-03-18T17:42:54.388Z,9.50
2023-03-18T17:45:32.870Z,10.30
2023-03-18T17:48:30.495Z,8.70
2023-03-18T17:51:20.153Z,8.60
2023-03-18T17:53:56.894Z,15.60
2023-03-18T17:56:28.340Z,16.10
2023-03-18T17:58:59.290Z,15.20
2023-03-18T18:01:30.497Z,14.40
2023-03-18T18:04:00.935Z,17.30
2023-03-18T18:06:30.788Z,22.70
2023-03-18T18:09:00.781Z,19.70
2023-03-18T18:11:38.363Z,11.60
2023-03-18T18:14:16.136Z,11.20
2023-03-18T18:16:46.586Z,12.90
2023-03-18T18:19:16.629Z,10.30
2023-03-18T18:21:46.607Z,17.50
2023-03-18T18:24:26.929Z,29.70
2023-03-18T18:26:58.201Z,31.90
2023-03-18T18:29:34.889Z,31.80
2023-03-18T18:32:07.232Z,45.70
2023-03-18T18:34:37.268Z,43.60
2023-03-18T18:37:07.036Z,49.10
2023-03-18T18:39:35.968Z,238.60
2023-03-18T18:42:12.791Z,36.30
2023-03-18T18:44:43.839Z,35.90
2023-03-18T18:47:23.878Z,39.30
2023-03-18T18:49:53.251Z,86.80
2023-03-18T18:52:23.792Z,226.20
2023-03-18T18:54:53.102Z,128.40
2023-03-18T18:57:30.924Z,57.90
2023-03-18T18:59:59.950Z,110.00
2023-03-18T19:02:37.975Z,156.50
2023-03-18T19:05:08.597Z,64.60
2023-03-18T19:07:37.946Z,48.80
2023-03-18T19:10:08.911Z,44.10
2023-03-18T19:12:44.830Z,98.80
2023-03-18T19:15:15.673Z,99.20
2023-03-18T19:17:46.995Z,92.10
2023-03-18T19:20:30.236Z,100.30
2023-03-18T19:22:59.985Z,46.40
2023-03-18T19:25:30.125Z,52.30
2023-03-18T19:27:59.531Z,64.80
2023-03-18T19:30:29.701Z,70.30
2023-03-18T19:33:00.212Z,66.10
2023-03-18T19:35:29.459Z,102.00
2023-03-18T19:37:59.795Z,50.60
2023-03-18T19:40:34.710Z,44.60
2023-03-18T19:43:14.076Z,39.30
2023-03-18T19:45:44.737Z,44.60
2023-03-18T19:48:24.021Z,52.30
2023-03-18T19:50:53.478Z,56.20
2023-03-18T19:53:24.534Z,51.80
2023-03-18T19:55:54.107Z,55.50
2023-03-18T19:58:26.710Z,56.00
2023-03-18T20:00:56.787Z,50.50
2023-03-18T20:03:27.037Z,46.80
2023-03-18T20:06:03.943Z,47.00
2023-03-18T20:08:34.294Z,55.20
2023-03-18T20:11:03.497Z,51.20
2023-03-18T20:13:40.322Z,49.10
2023-03-18T20:16:15.265Z,53.20
2023-03-18T20:18:44.650Z,48.10
2023-03-18T20:21:35.729Z,50.00
2023-03-18T20:24:10.112Z,44.50
2023-03-18T20:26:44.776Z,49.80
2023-03-18T20:29:21.272Z,53.80
2023-03-18T20:31:50.470Z,56.90
2023-03-18T20:34:20.419Z,57.40
2023-03-18T20:36:49.765Z,49.40
2023-03-18T20:39:20.741Z,46.30
2023-03-18T20:41:50.536Z,48.70
2023-03-18T20:44:19.604Z,47.10
2023-03-18T20:46:48.589Z,48.80
2023-03-18T20:49:20.271Z,46.30
2023-03-18T20:51:51.178Z,41.30
2023-03-18T20:54:23.866Z,38.50
2023-03-18T20:56:52.770Z,40.20
2023-03-18T20:59:22.358Z,38.10
2023-03-18T21:01:51.959Z,36.40
2023-03-18T21:04:20.928Z,38.30
2023-03-18T21:06:49.994Z,33.90
2023-03-18T21:09:19.148Z,30.50
2023-03-18T21:11:48.056Z,34.50
2023-03-18T21:14:17.279Z,36.30
2023-03-18T21:16:46.773Z,37.00
2023-03-18T21:19:17.604Z,34.80
2023-03-18T21:21:46.752Z,33.20
2023-03-18T21:24:24.234Z,34.60
2023-03-18T21:27:04.338Z,37.90
2023-03-18T21:29:34.595Z,37.10
2023-03-18T21:32:05.713Z,39.50
2023-03-18T21:34:36.890Z,34.00
2023-03-18T21:37:13.135Z,30.80
2023-03-18T21:39:43.325Z,25.00
2023-03-18T21:42:17.897Z,29.00
2023-03-18T21:44:47.248Z,27.00
2023-03-18T21:47:18.112Z,29.20
2023-03-18T21:49:49.699Z,28.60
2023-03-18T21:52:23.063Z,28.50
2023-03-18T21:54:52.417Z,27.70
2023-03-18T21:57:23.600Z,34.30
2023-03-18T21:59:53.173Z,28.70
2023-03-18T22:02:25.259Z,29.50
2023-03-18T22:04:55.647Z,30.50
2023-03-18T22:07:31.740Z,33.40
2023-03-18T22:10:01.535Z,35.40
2023-03-18T22:12:31.687Z,38.10
2023-03-18T22:15:01.189Z,52.40
2023-03-18T22:17:32.382Z,56.40
2023-03-18T22:20:01.876Z,51.50
2023-03-18T22:22:37.266Z,73.10
2023-03-18T22:25:08.841Z,83.90
2023-03-18T22:27:37.868Z,65.40
2023-03-18T22:30:09.859Z,53.60
2023-03-18T22:32:41.622Z,47.20
2023-03-18T22:35:18.043Z,45.30
2023-03-18T22:37:47.340Z,43.00
2023-03-18T22:40:18.825Z,39.40
2023-03-18T22:42:48.812Z,38.30
2023-03-18T22:45:26.228Z,36.00
2023-03-18T22:47:58.670Z,36.50
2023-03-18T22:50:28.820Z,38.10
2023-03-18T22:53:07.828Z,32.00
2023-03-18T22:55:39.286Z,42.00
2023-03-18T22:58:08.221Z,33.20
2023-03-18T23:00:41.539Z,35.50
2023-03-18T23:03:14.152Z,44.20
2023-03-18T23:08:12.411Z,39.40
2023-03-18T23:10:44.059Z,40.10
2023-03-18T23:13:17.301Z,37.90
2023-03-18T23:15:47.996Z,38.40
2023-03-18T23:18:17.570Z,40.10
2023-03-18T23:20:48.636Z,33.50
2023-03-18T23:23:18.635Z,41.30
2023-03-18T23:25:47.916Z,43.60
2023-03-18T23:28:21.436Z,37.70
2023-03-18T23:30:51.847Z,41.40
2023-03-18T23:33:21.171Z,36.30
2023-03-18T23:35:50.172Z,38.30
2023-03-18T23:38:19.508Z,35.80
2023-03-18T23:40:48.750Z,34.50
2023-03-18T23:43:21.821Z,38.40
2023-03-18T23:45:51.617Z,37.90
2023-03-18T23:48:20.837Z,43.30
2023-03-18T23:50:50.193Z,38.90
2023-03-18T23:53:21.196Z,40.80
2023-03-18T23:55:50.567Z,33.70
2023-03-18T23:58:20.380Z,33.30
